Royal Clipper — 9HA2796 — position and weather

sailwx.info

Track history (hours):
 
Tides and Currents Weather Stations Pressure Air Temp Water Temp Dewpoint Dewpoint Depression Visibility Wind Speed Wind Dir Waves Ship Positions

Royal Clipper

Last reported at 2017-Apr-27 13:45 UTC. Time now 2017-Apr-29 03:35 UTC.
Position N 36°06' W 005°14'.

Length 137 m; draft 6.2 m.

Type: Ship. MMSI: 215813000.

Date/timePositionNaut miles runAvg speedWind from/ knotsBaromVisibWave heightAir tempDewpointWater temp
2017-Apr-27 13:45N 36°06' W 005°14'1 4.5
2017-Apr-27 13:30N 36°06' W 005°15'3 5.3
2017-Apr-27 13:00N 36°05' W 005°18'4 7.4
2017-Apr-27 12:30N 36°07' W 005°22'2 3.7
2017-Apr-27 12:00N 36°09' W 005°22'0 0.0
2017-Apr-27 11:30N 36°09' W 005°22'0 0.0
2017-Apr-27 11:00N 36°09' W 005°22'0 0.0
2017-Apr-27 10:30N 36°09' W 005°22'0 0.0
2017-Apr-27 10:00N 36°09' W 005°22'0 0.0
2017-Apr-27 09:30N 36°09' W 005°22'0 0.0
2017-Apr-27 09:00N 36°09' W 005°22'0 0.0
2017-Apr-27 08:30N 36°09' W 005°22'0 0.0
2017-Apr-27 08:00N 36°09' W 005°22'0 0.0
2017-Apr-27 07:30N 36°09' W 005°22'0 0.0
2017-Apr-27 07:00N 36°09' W 005°22'0 0.0
2017-Apr-27 06:30N 36°09' W 005°22'0 0.0
2017-Apr-27 06:00N 36°09' W 005°22'0 0.0
2017-Apr-27 05:30N 36°09' W 005°22'0 0.0
2017-Apr-27 05:00N 36°09' W 005°22'0 0.0
2017-Apr-27 04:30N 36°09' W 005°22'0 0.0
2017-Apr-27 04:00N 36°09' W 005°22'0 0.0
2017-Apr-27 03:30N 36°09' W 005°22'0 0.0
2017-Apr-27 03:00N 36°09' W 005°22'0 0.0
2017-Apr-27 02:30N 36°09' W 005°22'0 0.0
2017-Apr-27 02:00N 36°09' W 005°22'0 0.0
2017-Apr-27 01:30N 36°09' W 005°22'0 0.0
2017-Apr-27 01:00N 36°09' W 005°22'0 0.0
2017-Apr-27 00:30N 36°09' W 005°22'0 0.0
2017-Apr-27 00:00N 36°09' W 005°22'0 0.0
2017-Apr-26 23:30N 36°09' W 005°22'0 0.0
2017-Apr-26 23:00N 36°09' W 005°22'0 0.0
2017-Apr-26 22:30N 36°09' W 005°22'0 0.0
2017-Apr-26 22:00N 36°09' W 005°22'0 0.0
2017-Apr-26 21:30N 36°09' W 005°22'0 0.0
2017-Apr-26 21:00N 36°09' W 005°22'0 0.0
2017-Apr-26 20:30N 36°09' W 005°22'0 0.0
2017-Apr-26 20:00N 36°09' W 005°22'1 2.2
2017-Apr-26 19:30N 36°08' W 005°23'5 9.9
2017-Apr-26 19:00N 36°04' W 005°20'3 6.6
2017-Apr-26 18:31N 36°01' W 005°18'4 8.2
2017-Apr-26 18:00N 35°59' W 005°23'611.2
2017-Apr-26 17:30N 35°57' W 005°30'712.9
2017-Apr-26 17:00N 35°55' W 005°37'131 6.4
2017-Apr-25 20:26N 36°48' W 008°06'3 6.4
2017-Apr-25 20:00N 36°49' W 008°09'5 6.3
2017-Apr-25 19:13N 36°53' W 008°13'2 6.9
2017-Apr-25 18:55N 36°55' W 008°14'3 7.3
2017-Apr-25 18:29N 36°57' W 008°17'3 7.0
2017-Apr-25 18:00N 36°59' W 008°20'4 7.3
2017-Apr-25 17:30N 37°02' W 008°24'4 7.1
2017-Apr-25 17:00N 37°04' W 008°27'3 7.0
2017-Apr-25 16:30N 37°05' W 008°31'2 4.2
2017-Apr-25 15:55N 37°08' W 008°32'0 0.0
2017-Apr-25 15:28N 37°08' W 008°32'0 0.0
2017-Apr-25 13:49N 37°08' W 008°32'0 0.0
2017-Apr-25 13:28N 37°08' W 008°32'0 0.0
2017-Apr-25 12:55N 37°08' W 008°32'0 0.0
2017-Apr-25 12:28N 37°08' W 008°32'0 0.0
2017-Apr-25 11:58N 37°08' W 008°32'0 0.0
2017-Apr-25 11:28N 37°08' W 008°32'1 1.7
2017-Apr-25 11:01N 37°07' W 008°32'510.8
2017-Apr-25 10:30N 37°03' W 008°36'53 6.5
2017-Apr-25 02:24N 37°43' W 009°18'512.0
2017-Apr-25 02:00N 37°48' W 009°18'611.5
2017-Apr-25 01:30N 37°54' W 009°19'510.6
2017-Apr-25 01:00N 37°59' W 009°20'510.5
2017-Apr-25 00:29N 38°05' W 009°20'510.3
2017-Apr-25 00:00N 38°10' W 009°21'4 8.8
2017-Apr-24 23:31N 38°14' W 009°22'3 5.0
2017-Apr-24 23:00N 38°16' W 009°22'3 5.1
2017-Apr-24 22:30N 38°19' W 009°22'4 8.8
2017-Apr-24 22:01N 38°23' W 009°22'510.0
2017-Apr-24 21:30N 38°28' W 009°23'510.3
2017-Apr-24 21:00N 38°33' W 009°23'510.2
2017-Apr-24 20:30N 38°38' W 009°21'611.6
2017-Apr-24 20:00N 38°41' W 009°14'510.1
2017-Apr-24 19:31N 38°42' W 009°08'1 2.1
2017-Apr-24 18:59N 38°43' W 009°07'0 0.0
2017-Apr-24 18:29N 38°43' W 009°07'0 0.0
2017-Apr-24 17:59N 38°43' W 009°07'0 0.0
2017-Apr-24 17:26N 38°43' W 009°07'0 0.0
2017-Apr-24 16:53N 38°43' W 009°07'0 0.0
2017-Apr-24 16:29N 38°43' W 009°07'0 0.0
2017-Apr-24 15:53N 38°43' W 009°07'0 0.0
2017-Apr-24 15:29N 38°43' W 009°07'0 0.0
2017-Apr-24 14:59N 38°43' W 009°07'0 0.0
2017-Apr-24 14:30N 38°43' W 009°07'0 0.0
2017-Apr-24 13:31N 38°43' W 009°07'0 0.0
2017-Apr-24 13:00N 38°43' W 009°07'0 0.0
2017-Apr-24 12:30N 38°43' W 009°07'0 0.0
2017-Apr-24 12:00N 38°43' W 009°07'0 0.0
2017-Apr-24 11:30N 38°43' W 009°07'0 0.0
2017-Apr-24 11:00N 38°43' W 009°07'0 0.0
2017-Apr-24 10:30N 38°43' W 009°07'0 0.0
2017-Apr-24 10:00N 38°43' W 009°07'0 0.0
2017-Apr-24 09:31N 38°43' W 009°07'0 0.0
2017-Apr-24 09:00N 38°43' W 009°07'0 0.0
2017-Apr-24 08:23N 38°43' W 009°07'0 0.0
2017-Apr-24 07:50N 38°43' W 009°07'0 0.0
2017-Apr-24 07:30N 38°43' W 009°07'0 0.0
2017-Apr-24 06:57N 38°43' W 009°07'0 0.0
2017-Apr-24 06:26N 38°43' W 009°07'0 0.0
2017-Apr-24 06:00N 38°43' W 009°07'0 0.0
2017-Apr-24 05:30N 38°43' W 009°07'0 0.0
2017-Apr-24 05:00N 38°43' W 009°07'2 3.4
2017-Apr-24 04:30N 38°42' W 009°09'4 7.1
2017-Apr-24 04:00N 38°41' W 009°14'4 7.4
2017-Apr-24 03:30N 38°40' W 009°18'510.4
2017-Apr-24 03:01N 38°37' W 009°23'612.4
2017-Apr-24 02:31N 38°36' W 009°31'612.4
2017-Apr-24 02:00N 38°35' W 009°39'612.5
2017-Apr-24 01:31N 38°35' W 009°47'612.6
2017-Apr-24 01:00N 38°34' W 009°55'611.9
2017-Apr-24 00:31N 38°34' W 010°03'510.6
2017-Apr-24 00:00N 38°34' W 010°09'3 6.2
2017-Apr-23 23:31N 38°33' W 010°13'5 9.8
2017-Apr-23 22:59N 38°33' W 010°20'5 9.9
2017-Apr-23 22:30N 38°32' W 010°26'510.0
2017-Apr-23 22:00N 38°32' W 010°32'510.0
2017-Apr-23 21:30N 38°31' W 010°39'5 9.8
2017-Apr-23 21:00N 38°31' W 010°45'5 9.9
2017-Apr-23 20:30N 38°30' W 010°51'510.0
2017-Apr-23 20:00N 38°30' W 010°58'510.0
2017-Apr-23 19:30N 38°30' W 011°04'5 9.9
2017-Apr-23 19:00N 38°30' W 011°10'5 9.9
2017-Apr-23 18:30N 38°29' W 011°17'5 9.7
2017-Apr-23 18:00N 38°29' W 011°23'5 9.9
2017-Apr-23 17:30N 38°29' W 011°29'510.0
2017-Apr-23 17:00N 38°29' W 011°35'5 9.7
2017-Apr-23 16:30N 38°29' W 011°42'5 9.8
2017-Apr-23 16:00N 38°29' W 011°48'510.0
2017-Apr-23 15:30N 38°28' W 011°54'5 9.9
2017-Apr-23 15:00N 38°28' W 012°00'10 9.6
2017-Apr-23 14:00N 38°27' W 012°13'5 9.8
2017-Apr-23 13:31N 38°27' W 012°19'  
2017-Apr-20 12:04N 37°41' W 023°41'1 7.1
2017-Apr-20 11:59N 37°41' W 023°41'4 7.2
2017-Apr-20 11:29N 37°42' W 023°46'4 7.3
2017-Apr-20 11:00N 37°42' W 023°50'4 7.3
2017-Apr-20 10:29N 37°42' W 023°55'3 7.1
2017-Apr-20 10:00N 37°42' W 023°60'4 7.2
2017-Apr-20 09:30N 37°42' W 024°04'4 7.1
2017-Apr-20 09:00N 37°43' W 024°09'4 7.0
2017-Apr-20 08:31N 37°43' W 024°13'3 6.9
2017-Apr-20 08:00N 37°43' W 024°17'3 6.5
2017-Apr-20 07:30N 37°43' W 024°21'3 6.9
2017-Apr-20 07:01N 37°42' W 024°26'4 7.4
2017-Apr-20 06:30N 37°42' W 024°30'4 7.7
2017-Apr-20 06:00N 37°42' W 024°35'4 7.3
2017-Apr-20 05:31N 37°41' W 024°40'4 7.6
2017-Apr-20 05:00N 37°41' W 024°45'4 8.1
2017-Apr-20 04:30N 37°41' W 024°50'4 7.8
2017-Apr-20 04:00N 37°40' W 024°55'4 7.9
2017-Apr-20 03:30N 37°40' W 024°60'4 8.0
2017-Apr-20 03:00N 37°39' W 025°05'4 8.1
2017-Apr-20 02:31N 37°39' W 025°10'4 7.9
2017-Apr-20 02:00N 37°39' W 025°15'4 7.8
2017-Apr-20 01:30N 37°39' W 025°20'4 8.1
2017-Apr-20 01:01N 37°39' W 025°25'4 8.9
2017-Apr-20 00:30N 37°39' W 025°30'4 7.5
2017-Apr-20 00:00N 37°39' W 025°35'1 1.8
2017-Apr-19 23:31N 37°39' W 025°36'2 3.0
2017-Apr-19 23:00N 37°41' W 025°37'3 5.1
2017-Apr-19 22:30N 37°43' W 025°39'2 3.1
2017-Apr-19 21:58N 37°44' W 025°40'0 0.0
2017-Apr-19 21:28N 37°44' W 025°40'0 0.0
2017-Apr-19 20:58N 37°44' W 025°40'0 0.0
2017-Apr-19 20:28N 37°44' W 025°40'0 0.0
2017-Apr-19 19:58N 37°44' W 025°40'0 0.0
2017-Apr-19 19:28N 37°44' W 025°40'0 0.0
2017-Apr-19 18:58N 37°44' W 025°40'0 0.0
2017-Apr-19 18:28N 37°44' W 025°40'0 0.0
2017-Apr-19 17:58N 37°44' W 025°40'0 0.0
2017-Apr-19 17:28N 37°44' W 025°40'0 0.0
2017-Apr-19 16:58N 37°44' W 025°40'0 0.0
2017-Apr-19 16:28N 37°44' W 025°40'0 0.0
2017-Apr-19 15:58N 37°44' W 025°40'0 0.0
2017-Apr-19 15:28N 37°44' W 025°40'0 0.0
2017-Apr-19 14:58N 37°44' W 025°40'0 0.0
2017-Apr-19 14:28N 37°44' W 025°40'0 0.0
2017-Apr-19 13:28N 37°44' W 025°40'0 0.0
2017-Apr-19 12:58N 37°44' W 025°40'0 0.0
2017-Apr-19 12:28N 37°44' W 025°40'0 0.0
2017-Apr-19 11:58N 37°44' W 025°40'0 0.0
2017-Apr-19 11:28N 37°44' W 025°40'0 0.0
2017-Apr-19 10:58N 37°44' W 025°40'0 0.0
2017-Apr-19 10:28N 37°44' W 025°40'0 0.0
2017-Apr-19 09:58N 37°44' W 025°40'0 0.0
2017-Apr-19 09:28N 37°44' W 025°40'0 0.0
2017-Apr-19 08:58N 37°44' W 025°40'0 0.0
2017-Apr-19 08:28N 37°44' W 025°40'0 0.0
2017-Apr-19 07:58N 37°44' W 025°40'0 0.0
2017-Apr-19 07:31N 37°44' W 025°40'1 1.9
2017-Apr-19 07:00N 37°43' W 025°39'4 8.1
2017-Apr-19 06:30N 37°42' W 025°44'611.8
2017-Apr-19 06:00N 37°40' W 025°51'611.7
2017-Apr-19 05:30N 37°38' W 025°58'611.7
2017-Apr-19 05:00N 37°36' W 026°05'612.1
2017-Apr-19 04:30N 37°34' W 026°12'611.9
2017-Apr-19 04:00N 37°32' W 026°19'611.4
2017-Apr-19 03:30N 37°30' W 026°26'510.9
2017-Apr-19 03:00N 37°28' W 026°32'510.7
2017-Apr-19 02:30N 37°26' W 026°39'510.7
2017-Apr-19 02:00N 37°24' W 026°45'511.0
2017-Apr-19 01:30N 37°23' W 026°51'  
Track history (hours):
 
Tides and Currents Weather Stations Pressure Air Temp Water Temp Dewpoint Dewpoint Depression Visibility Wind Speed Wind Dir Waves Ship Positions

Royal Clipper

Last reported at 2017-Apr-27 13:45 UTC. Time now 2017-Apr-29 03:35 UTC.
Position N 36°06' W 005°14'.

Length 137 m; draft 6.2 m.

Type: Ship. MMSI: 215813000.

Date/timePositionNaut miles runAvg speedWind from/ knotsBaromVisibWave heightAir tempDewpointWater temp
2017-Apr-27 13:45N 36°06' W 005°14'1 4.5
2017-Apr-27 13:30N 36°06' W 005°15'3 5.3
2017-Apr-27 13:00N 36°05' W 005°18'4 7.4
2017-Apr-27 12:30N 36°07' W 005°22'2 3.7
2017-Apr-27 12:00N 36°09' W 005°22'0 0.0
2017-Apr-27 11:30N 36°09' W 005°22'0 0.0
2017-Apr-27 11:00N 36°09' W 005°22'0 0.0
2017-Apr-27 10:30N 36°09' W 005°22'0 0.0
2017-Apr-27 10:00N 36°09' W 005°22'0 0.0
2017-Apr-27 09:30N 36°09' W 005°22'0 0.0
2017-Apr-27 09:00N 36°09' W 005°22'0 0.0
2017-Apr-27 08:30N 36°09' W 005°22'0 0.0
2017-Apr-27 08:00N 36°09' W 005°22'0 0.0
2017-Apr-27 07:30N 36°09' W 005°22'0 0.0
2017-Apr-27 07:00N 36°09' W 005°22'0 0.0
2017-Apr-27 06:30N 36°09' W 005°22'0 0.0
2017-Apr-27 06:00N 36°09' W 005°22'0 0.0
2017-Apr-27 05:30N 36°09' W 005°22'0 0.0
2017-Apr-27 05:00N 36°09' W 005°22'0 0.0
2017-Apr-27 04:30N 36°09' W 005°22'0 0.0
2017-Apr-27 04:00N 36°09' W 005°22'0 0.0
2017-Apr-27 03:30N 36°09' W 005°22'0 0.0
2017-Apr-27 03:00N 36°09' W 005°22'0 0.0
2017-Apr-27 02:30N 36°09' W 005°22'0 0.0
2017-Apr-27 02:00N 36°09' W 005°22'0 0.0
2017-Apr-27 01:30N 36°09' W 005°22'0 0.0
2017-Apr-27 01:00N 36°09' W 005°22'0 0.0
2017-Apr-27 00:30N 36°09' W 005°22'0 0.0
2017-Apr-27 00:00N 36°09' W 005°22'0 0.0
2017-Apr-26 23:30N 36°09' W 005°22'0 0.0
2017-Apr-26 23:00N 36°09' W 005°22'0 0.0
2017-Apr-26 22:30N 36°09' W 005°22'0 0.0
2017-Apr-26 22:00N 36°09' W 005°22'0 0.0
2017-Apr-26 21:30N 36°09' W 005°22'0 0.0
2017-Apr-26 21:00N 36°09' W 005°22'0 0.0
2017-Apr-26 20:30N 36°09' W 005°22'0 0.0
2017-Apr-26 20:00N 36°09' W 005°22'1 2.2
2017-Apr-26 19:30N 36°08' W 005°23'5 9.9
2017-Apr-26 19:00N 36°04' W 005°20'3 6.6
2017-Apr-26 18:31N 36°01' W 005°18'4 8.2
2017-Apr-26 18:00N 35°59' W 005°23'611.2
2017-Apr-26 17:30N 35°57' W 005°30'712.9
2017-Apr-26 17:00N 35°55' W 005°37'131 6.4
2017-Apr-25 20:26N 36°48' W 008°06'3 6.4
2017-Apr-25 20:00N 36°49' W 008°09'5 6.3
2017-Apr-25 19:13N 36°53' W 008°13'2 6.9
2017-Apr-25 18:55N 36°55' W 008°14'3 7.3
2017-Apr-25 18:29N 36°57' W 008°17'3 7.0
2017-Apr-25 18:00N 36°59' W 008°20'4 7.3
2017-Apr-25 17:30N 37°02' W 008°24'4 7.1
2017-Apr-25 17:00N 37°04' W 008°27'3 7.0
2017-Apr-25 16:30N 37°05' W 008°31'2 4.2
2017-Apr-25 15:55N 37°08' W 008°32'0 0.0
2017-Apr-25 15:28N 37°08' W 008°32'0 0.0
2017-Apr-25 13:49N 37°08' W 008°32'0 0.0
2017-Apr-25 13:28N 37°08' W 008°32'0 0.0
2017-Apr-25 12:55N 37°08' W 008°32'0 0.0
2017-Apr-25 12:28N 37°08' W 008°32'0 0.0
2017-Apr-25 11:58N 37°08' W 008°32'0 0.0
2017-Apr-25 11:28N 37°08' W 008°32'1 1.7
2017-Apr-25 11:01N 37°07' W 008°32'510.8
2017-Apr-25 10:30N 37°03' W 008°36'53 6.5
2017-Apr-25 02:24N 37°43' W 009°18'512.0
2017-Apr-25 02:00N 37°48' W 009°18'611.5
2017-Apr-25 01:30N 37°54' W 009°19'510.6
2017-Apr-25 01:00N 37°59' W 009°20'510.5
2017-Apr-25 00:29N 38°05' W 009°20'510.3
2017-Apr-25 00:00N 38°10' W 009°21'4 8.8
2017-Apr-24 23:31N 38°14' W 009°22'3 5.0
2017-Apr-24 23:00N 38°16' W 009°22'3 5.1
2017-Apr-24 22:30N 38°19' W 009°22'4 8.8
2017-Apr-24 22:01N 38°23' W 009°22'510.0
2017-Apr-24 21:30N 38°28' W 009°23'510.3
2017-Apr-24 21:00N 38°33' W 009°23'510.2
2017-Apr-24 20:30N 38°38' W 009°21'611.6
2017-Apr-24 20:00N 38°41' W 009°14'510.1
2017-Apr-24 19:31N 38°42' W 009°08'1 2.1
2017-Apr-24 18:59N 38°43' W 009°07'0 0.0
2017-Apr-24 18:29N 38°43' W 009°07'0 0.0
2017-Apr-24 17:59N 38°43' W 009°07'0 0.0
2017-Apr-24 17:26N 38°43' W 009°07'0 0.0
2017-Apr-24 16:53N 38°43' W 009°07'0 0.0
2017-Apr-24 16:29N 38°43' W 009°07'0 0.0
2017-Apr-24 15:53N 38°43' W 009°07'0 0.0
2017-Apr-24 15:29N 38°43' W 009°07'0 0.0
2017-Apr-24 14:59N 38°43' W 009°07'0 0.0
2017-Apr-24 14:30N 38°43' W 009°07'0 0.0
2017-Apr-24 13:31N 38°43' W 009°07'0 0.0
2017-Apr-24 13:00N 38°43' W 009°07'0 0.0
2017-Apr-24 12:30N 38°43' W 009°07'0 0.0
2017-Apr-24 12:00N 38°43' W 009°07'0 0.0
2017-Apr-24 11:30N 38°43' W 009°07'0 0.0
2017-Apr-24 11:00N 38°43' W 009°07'0 0.0
2017-Apr-24 10:30N 38°43' W 009°07'0 0.0
2017-Apr-24 10:00N 38°43' W 009°07'0 0.0
2017-Apr-24 09:31N 38°43' W 009°07'0 0.0
2017-Apr-24 09:00N 38°43' W 009°07'0 0.0
2017-Apr-24 08:23N 38°43' W 009°07'0 0.0
2017-Apr-24 07:50N 38°43' W 009°07'0 0.0
2017-Apr-24 07:30N 38°43' W 009°07'0 0.0
2017-Apr-24 06:57N 38°43' W 009°07'0 0.0
2017-Apr-24 06:26N 38°43' W 009°07'0 0.0
2017-Apr-24 06:00N 38°43' W 009°07'0 0.0
2017-Apr-24 05:30N 38°43' W 009°07'0 0.0
2017-Apr-24 05:00N 38°43' W 009°07'2 3.4
2017-Apr-24 04:30N 38°42' W 009°09'4 7.1
2017-Apr-24 04:00N 38°41' W 009°14'4 7.4
2017-Apr-24 03:30N 38°40' W 009°18'510.4
2017-Apr-24 03:01N 38°37' W 009°23'612.4
2017-Apr-24 02:31N 38°36' W 009°31'612.4
2017-Apr-24 02:00N 38°35' W 009°39'612.5
2017-Apr-24 01:31N 38°35' W 009°47'612.6
2017-Apr-24 01:00N 38°34' W 009°55'611.9
2017-Apr-24 00:31N 38°34' W 010°03'510.6
2017-Apr-24 00:00N 38°34' W 010°09'3 6.2
2017-Apr-23 23:31N 38°33' W 010°13'5 9.8
2017-Apr-23 22:59N 38°33' W 010°20'5 9.9
2017-Apr-23 22:30N 38°32' W 010°26'510.0
2017-Apr-23 22:00N 38°32' W 010°32'510.0
2017-Apr-23 21:30N 38°31' W 010°39'5 9.8
2017-Apr-23 21:00N 38°31' W 010°45'5 9.9
2017-Apr-23 20:30N 38°30' W 010°51'510.0
2017-Apr-23 20:00N 38°30' W 010°58'510.0
2017-Apr-23 19:30N 38°30' W 011°04'5 9.9
2017-Apr-23 19:00N 38°30' W 011°10'5 9.9
2017-Apr-23 18:30N 38°29' W 011°17'5 9.7
2017-Apr-23 18:00N 38°29' W 011°23'5 9.9
2017-Apr-23 17:30N 38°29' W 011°29'510.0
2017-Apr-23 17:00N 38°29' W 011°35'5 9.7
2017-Apr-23 16:30N 38°29' W 011°42'5 9.8
2017-Apr-23 16:00N 38°29' W 011°48'510.0
2017-Apr-23 15:30N 38°28' W 011°54'5 9.9
2017-Apr-23 15:00N 38°28' W 012°00'10 9.6
2017-Apr-23 14:00N 38°27' W 012°13'5 9.8
2017-Apr-23 13:31N 38°27' W 012°19'  
2017-Apr-20 12:04N 37°41' W 023°41'1 7.1
2017-Apr-20 11:59N 37°41' W 023°41'4 7.2
2017-Apr-20 11:29N 37°42' W 023°46'4 7.3
2017-Apr-20 11:00N 37°42' W 023°50'4 7.3
2017-Apr-20 10:29N 37°42' W 023°55'3 7.1
2017-Apr-20 10:00N 37°42' W 023°60'4 7.2
2017-Apr-20 09:30N 37°42' W 024°04'4 7.1
2017-Apr-20 09:00N 37°43' W 024°09'4 7.0
2017-Apr-20 08:31N 37°43' W 024°13'3 6.9
2017-Apr-20 08:00N 37°43' W 024°17'3 6.5
2017-Apr-20 07:30N 37°43' W 024°21'3 6.9
2017-Apr-20 07:01N 37°42' W 024°26'4 7.4
2017-Apr-20 06:30N 37°42' W 024°30'4 7.7
2017-Apr-20 06:00N 37°42' W 024°35'4 7.3
2017-Apr-20 05:31N 37°41' W 024°40'4 7.6
2017-Apr-20 05:00N 37°41' W 024°45'4 8.1
2017-Apr-20 04:30N 37°41' W 024°50'4 7.8
2017-Apr-20 04:00N 37°40' W 024°55'4 7.9
2017-Apr-20 03:30N 37°40' W 024°60'4 8.0
2017-Apr-20 03:00N 37°39' W 025°05'4 8.1
2017-Apr-20 02:31N 37°39' W 025°10'4 7.9
2017-Apr-20 02:00N 37°39' W 025°15'4 7.8
2017-Apr-20 01:30N 37°39' W 025°20'4 8.1
2017-Apr-20 01:01N 37°39' W 025°25'4 8.9
2017-Apr-20 00:30N 37°39' W 025°30'4 7.5
2017-Apr-20 00:00N 37°39' W 025°35'1 1.8
2017-Apr-19 23:31N 37°39' W 025°36'2 3.0
2017-Apr-19 23:00N 37°41' W 025°37'3 5.1
2017-Apr-19 22:30N 37°43' W 025°39'2 3.1
2017-Apr-19 21:58N 37°44' W 025°40'0 0.0
2017-Apr-19 21:28N 37°44' W 025°40'0 0.0
2017-Apr-19 20:58N 37°44' W 025°40'0 0.0
2017-Apr-19 20:28N 37°44' W 025°40'0 0.0
2017-Apr-19 19:58N 37°44' W 025°40'0 0.0
2017-Apr-19 19:28N 37°44' W 025°40'0 0.0
2017-Apr-19 18:58N 37°44' W 025°40'0 0.0
2017-Apr-19 18:28N 37°44' W 025°40'0 0.0
2017-Apr-19 17:58N 37°44' W 025°40'0 0.0
2017-Apr-19 17:28N 37°44' W 025°40'0 0.0
2017-Apr-19 16:58N 37°44' W 025°40'0 0.0
2017-Apr-19 16:28N 37°44' W 025°40'0 0.0
2017-Apr-19 15:58N 37°44' W 025°40'0 0.0
2017-Apr-19 15:28N 37°44' W 025°40'0 0.0
2017-Apr-19 14:58N 37°44' W 025°40'0 0.0
2017-Apr-19 14:28N 37°44' W 025°40'0 0.0
2017-Apr-19 13:28N 37°44' W 025°40'0 0.0
2017-Apr-19 12:58N 37°44' W 025°40'0 0.0
2017-Apr-19 12:28N 37°44' W 025°40'0 0.0
2017-Apr-19 11:58N 37°44' W 025°40'0 0.0
2017-Apr-19 11:28N 37°44' W 025°40'0 0.0
2017-Apr-19 10:58N 37°44' W 025°40'0 0.0
2017-Apr-19 10:28N 37°44' W 025°40'0 0.0
2017-Apr-19 09:58N 37°44' W 025°40'0 0.0
2017-Apr-19 09:28N 37°44' W 025°40'0 0.0
2017-Apr-19 08:58N 37°44' W 025°40'0 0.0
2017-Apr-19 08:28N 37°44' W 025°40'0 0.0
2017-Apr-19 07:58N 37°44' W 025°40'0 0.0
2017-Apr-19 07:31N 37°44' W 025°40'1 1.9
2017-Apr-19 07:00N 37°43' W 025°39'4 8.1
2017-Apr-19 06:30N 37°42' W 025°44'611.8
2017-Apr-19 06:00N 37°40' W 025°51'611.7
2017-Apr-19 05:30N 37°38' W 025°58'611.7
2017-Apr-19 05:00N 37°36' W 026°05'612.1
2017-Apr-19 04:30N 37°34' W 026°12'611.9
2017-Apr-19 04:00N 37°32' W 026°19'611.4
2017-Apr-19 03:30N 37°30' W 026°26'510.9
2017-Apr-19 03:00N 37°28' W 026°32'510.7
2017-Apr-19 02:30N 37°26' W 026°39'510.7
2017-Apr-19 02:00N 37°24' W 026°45'511.0
2017-Apr-19 01:30N 37°23' W 026°51'  

Dump ship's entire track history